createdAt,value
2022-09-05T00:00:02.669Z,1.05
2022-09-05T00:02:49.030Z,0.70
2022-09-05T00:05:32.337Z,0.70
2022-09-05T00:08:28.729Z,1.00
2022-09-05T00:11:43.079Z,0.95
2022-09-05T00:14:34.416Z,0.80
2022-09-05T00:18:00.243Z,0.75
2022-09-05T00:24:22.268Z,0.98
2022-09-05T00:24:28.688Z,1.45
2022-09-05T00:26:36.269Z,1.30
2022-09-05T00:29:12.955Z,1.00
2022-09-05T00:31:55.439Z,1.00
2022-09-05T00:34:53.768Z,1.42
2022-09-05T00:37:45.483Z,1.15
2022-09-05T00:40:57.812Z,1.13
2022-09-05T00:43:43.407Z,0.70
2022-09-05T00:46:32.084Z,1.83
2022-09-05T00:49:34.364Z,0.88
2022-09-05T00:52:13.637Z,3.72
2022-09-05T00:54:58.554Z,0.80
2022-09-05T00:57:37.510Z,1.00
2022-09-05T01:00:25.789Z,1.20
2022-09-05T01:03:31.033Z,0.80
2022-09-05T01:06:29.652Z,1.55
2022-09-05T01:09:07.988Z,1.85
2022-09-05T01:11:56.301Z,1.15
2022-09-05T01:14:45.095Z,0.90
2022-09-05T01:17:56.688Z,0.77
2022-09-05T01:20:50.791Z,2.92
2022-09-05T01:23:37.486Z,1.92
2022-09-05T01:26:04.800Z,0.90
2022-09-05T01:29:18.434Z,0.90
2022-09-05T01:31:50.560Z,1.40
2022-09-05T01:34:39.206Z,1.00
2022-09-05T01:37:34.053Z,2.25
2022-09-05T01:40:14.698Z,0.70
2022-09-05T01:42:54.812Z,1.42
2022-09-05T01:46:00.087Z,1.30
2022-09-05T01:48:47.981Z,1.00
2022-09-05T01:51:40.275Z,0.77
2022-09-05T01:54:41.847Z,1.25
2022-09-05T01:57:37.408Z,1.55
2022-09-05T02:00:30.764Z,0.75
2022-09-05T02:03:08.748Z,1.88
2022-09-05T02:05:59.841Z,1.15
2022-09-05T02:08:59.381Z,1.20
2022-09-05T02:11:58.907Z,1.38
2022-09-05T02:14:44.431Z,1.30
2022-09-05T02:17:33.532Z,2.15
2022-09-05T02:20:29.137Z,1.33
2022-09-05T02:23:04.675Z,3.05
2022-09-05T02:26:20.953Z,0.70
2022-09-05T02:29:08.770Z,1.67
2022-09-05T02:31:48.775Z,4.72
2022-09-05T02:34:32.267Z,1.58
2022-09-05T02:38:52.398Z,0.90
2022-09-05T02:45:01.138Z,1.10
2022-09-05T02:45:06.291Z,1.15
2022-09-05T02:46:48.167Z,1.23
2022-09-05T02:51:04.162Z,1.45
2022-09-05T02:57:23.743Z,1.33
2022-09-05T02:57:36.696Z,1.13
2022-09-05T02:59:09.639Z,0.80
2022-09-05T03:02:01.472Z,0.70
2022-09-05T03:05:04.253Z,0.73
2022-09-05T03:07:55.748Z,2.42
2022-09-05T03:10:54.538Z,1.48
2022-09-05T03:14:05.624Z,0.93
2022-09-05T03:17:00.524Z,1.27
2022-09-05T03:19:47.036Z,1.20
2022-09-05T03:22:14.413Z,1.17
2022-09-05T03:24:55.968Z,1.35
2022-09-05T03:27:29.530Z,1.20
2022-09-05T03:29:59.995Z,0.70
2022-09-05T03:32:43.077Z,1.63
2022-09-05T03:35:32.858Z,1.15
2022-09-05T03:38:38.143Z,0.77
2022-09-05T03:41:21.645Z,0.80
2022-09-05T03:44:01.778Z,0.90
2022-09-05T03:46:35.250Z,1.58
2022-09-05T03:50:59.265Z,1.88
2022-09-05T03:57:12.694Z,1.00
2022-09-05T03:57:16.116Z,1.77
2022-09-05T03:59:06.967Z,1.00
2022-09-05T04:03:14.489Z,0.80
2022-09-05T04:08:07.159Z,0.95
2022-09-05T04:08:32.128Z,2.00
2022-09-05T04:11:24.251Z,0.73
2022-09-05T04:14:06.649Z,1.10
2022-09-05T04:16:48.358Z,0.85
2022-09-05T04:19:28.642Z,0.80
2022-09-05T04:22:36.652Z,0.80
2022-09-05T04:25:24.749Z,1.10
2022-09-05T04:28:41.328Z,0.70
2022-09-05T04:31:36.965Z,0.85
2022-09-05T04:34:17.435Z,1.73
2022-09-05T04:36:47.105Z,1.27
2022-09-05T04:39:21.053Z,1.10
2022-09-05T04:41:53.126Z,1.80
2022-09-05T04:44:27.746Z,0.80
2022-09-05T04:47:10.413Z,0.68
2022-09-05T04:49:57.923Z,0.80
2022-09-05T04:53:06.933Z,0.82
2022-09-05T04:55:51.021Z,2.00
2022-09-05T04:58:21.780Z,1.85
2022-09-05T05:06:03.004Z,1.23
2022-09-05T05:06:14.282Z,0.70
2022-09-05T05:07:23.545Z,2.00
2022-09-05T05:11:04.550Z,2.50
2022-09-05T05:17:59.310Z,1.33
2022-09-05T05:18:14.074Z,2.60
2022-09-05T05:19:01.442Z,0.93
2022-09-05T05:21:34.696Z,1.27
2022-09-05T05:24:16.115Z,0.60
2022-09-05T05:26:56.972Z,0.60
2022-09-05T05:29:40.407Z,0.85
2022-09-05T05:32:15.617Z,1.05
2022-09-05T05:35:32.635Z,1.63
2022-09-05T05:38:23.449Z,0.70
2022-09-05T05:41:24.835Z,0.60
2022-09-05T05:43:53.047Z,2.88
2022-09-05T05:46:56.869Z,1.48
2022-09-05T05:49:39.668Z,3.53
2022-09-05T05:52:46.771Z,0.98
2022-09-05T05:55:52.298Z,2.47
2022-09-05T05:58:32.635Z,2.35
2022-09-05T06:01:37.664Z,1.25
2022-09-05T06:04:34.161Z,0.80
2022-09-05T06:07:45.109Z,2.22
2022-09-05T06:14:56.249Z,0.70
2022-09-05T06:15:02.366Z,0.60
2022-09-05T06:17:45.757Z,0.70
2022-09-05T06:22:05.370Z,1.15
2022-09-05T06:23:54.660Z,0.70
2022-09-05T06:26:50.876Z,1.80
2022-09-05T06:30:03.204Z,0.70
2022-09-05T06:33:19.234Z,1.85
2022-09-05T06:36:04.446Z,1.52
2022-09-05T06:38:54.028Z,0.77
2022-09-05T06:41:39.137Z,0.73
2022-09-05T06:44:42.141Z,1.75
2022-09-05T06:47:23.840Z,1.58
2022-09-05T06:50:24.075Z,0.75
2022-09-05T06:59:14.773Z,0.70
2022-09-05T07:02:11.022Z,1.40
2022-09-05T07:14:28.849Z,0.50
2022-09-05T07:46:39.928Z,0.50
2022-09-05T07:56:59.386Z,0.50
2022-09-05T07:57:51.718Z,0.55
2022-09-05T08:00:26.661Z,0.60
2022-09-05T08:03:15.276Z,0.60
2022-09-05T08:05:49.101Z,1.05
2022-09-05T08:08:21.078Z,0.60
2022-09-05T08:11:24.808Z,3.05
2022-09-05T08:14:40.707Z,0.50
2022-09-05T08:16:58.487Z,0.70
2022-09-05T08:19:32.142Z,0.65
2022-09-05T08:22:01.830Z,0.50
2022-09-05T08:24:41.995Z,0.50
2022-09-05T08:27:26.919Z,1.48
2022-09-05T08:30:25.656Z,0.60
2022-09-05T08:33:11.875Z,2.53
2022-09-05T08:36:02.965Z,1.10
2022-09-05T08:38:40.579Z,0.75
2022-09-05T08:41:33.428Z,0.75
2022-09-05T08:46:39.704Z,1.05
2022-09-05T08:48:08.331Z,0.77
2022-09-05T08:51:07.810Z,1.17
2022-09-05T08:54:01.904Z,0.60
2022-09-05T09:00:19.306Z,1.00
2022-09-05T09:03:18.761Z,1.70
2022-09-05T09:06:14.069Z,0.68
2022-09-05T09:09:05.358Z,0.50
2022-09-05T09:11:50.416Z,1.45
2022-09-05T09:14:43.286Z,1.08
2022-09-05T09:17:17.400Z,0.60
2022-09-05T09:20:03.380Z,0.60
2022-09-05T09:23:07.291Z,0.60
2022-09-05T09:26:17.238Z,0.63
2022-09-05T09:35:25.176Z,0.70
2022-09-05T09:38:31.207Z,0.75
2022-09-05T09:41:18.150Z,0.65
2022-09-05T09:44:26.643Z,0.60
2022-09-05T09:46:56.534Z,0.57
2022-09-05T09:55:32.824Z,1.58
2022-09-05T09:58:17.053Z,0.60
2022-09-05T10:13:08.097Z,0.50
2022-09-05T10:15:42.819Z,1.85
2022-09-05T10:18:34.240Z,0.50
2022-09-05T10:21:39.424Z,0.47
2022-09-05T10:24:39.070Z,0.85
2022-09-05T10:27:45.735Z,0.70
2022-09-05T10:31:10.014Z,0.68
2022-09-05T10:35:08.944Z,0.60
2022-09-05T10:36:39.337Z,2.15
2022-09-05T10:39:13.861Z,0.68
2022-09-05T10:41:51.978Z,0.70
2022-09-05T10:44:42.413Z,0.68
2022-09-05T10:47:29.859Z,0.60
2022-09-05T10:50:28.750Z,1.13
2022-09-05T10:53:11.575Z,0.60
2022-09-05T10:56:07.506Z,0.60
2022-09-05T11:00:38.422Z,1.60
2022-09-05T11:02:38.533Z,2.10
2022-09-05T11:05:27.551Z,0.60
2022-09-05T11:13:50.438Z,0.60
2022-09-05T11:16:34.555Z,0.80
2022-09-05T11:19:47.176Z,0.93
2022-09-05T11:22:24.047Z,1.42
2022-09-05T11:24:58.093Z,1.10
2022-09-05T11:30:31.015Z,0.98
2022-09-05T11:39:48.695Z,0.63
2022-09-05T11:39:58.916Z,2.22
2022-09-05T11:40:09.611Z,1.83
2022-09-05T11:42:29.140Z,0.60
2022-09-05T11:45:07.576Z,3.80
2022-09-05T11:48:28.451Z,0.70
2022-09-05T11:50:58.734Z,1.85
2022-09-05T11:53:59.796Z,3.50
2022-09-05T11:57:31.921Z,1.98
2022-09-05T12:00:31.225Z,0.80
2022-09-05T12:03:57.446Z,1.95
2022-09-05T12:06:49.511Z,0.85
2022-09-05T12:09:33.482Z,0.80
2022-09-05T12:12:39.529Z,0.60
2022-09-05T12:15:29.683Z,1.90
2022-09-05T12:18:21.584Z,0.68
2022-09-05T12:21:25.796Z,1.10
2022-09-05T12:24:57.325Z,0.88
2022-09-05T12:27:39.426Z,1.13
2022-09-05T12:29:54.337Z,2.60
2022-09-05T12:33:45.577Z,1.67
2022-09-05T12:40:36.862Z,1.38
2022-09-05T12:40:59.850Z,1.67
2022-09-05T12:42:14.633Z,1.08
2022-09-05T12:45:09.144Z,0.80
2022-09-05T12:48:07.779Z,0.70
2022-09-05T12:51:00.421Z,0.75
2022-09-05T12:53:51.616Z,6.05
2022-09-05T12:58:04.111Z,0.93
2022-09-05T13:03:03.545Z,0.80
2022-09-05T13:03:13.272Z,1.02
2022-09-05T13:05:16.522Z,1.25
2022-09-05T13:07:58.450Z,0.70
2022-09-05T13:14:53.293Z,1.33
2022-09-05T13:14:56.210Z,0.80
2022-09-05T13:16:29.552Z,1.05
2022-09-05T13:19:07.543Z,2.25
2022-09-05T13:21:40.186Z,0.70
2022-09-05T13:24:14.829Z,1.25
2022-09-05T13:26:54.091Z,0.57
2022-09-05T13:31:44.081Z,0.75
2022-09-05T13:38:03.241Z,0.90
2022-09-05T13:38:13.700Z,0.80
2022-09-05T13:38:56.195Z,1.45
2022-09-05T13:41:30.933Z,1.15
2022-09-05T13:44:25.168Z,1.10
2022-09-05T13:47:28.970Z,0.93
2022-09-05T13:50:13.918Z,1.60
2022-09-05T13:52:47.143Z,1.33
2022-09-05T13:55:43.354Z,1.17
2022-09-05T13:58:26.983Z,2.72
2022-09-05T14:01:17.738Z,1.00
2022-09-05T14:04:05.661Z,0.70
2022-09-05T14:06:52.064Z,2.38
2022-09-05T14:10:06.658Z,7.40
2022-09-05T14:12:42.249Z,2.00
2022-09-05T14:15:35.858Z,2.55
2022-09-05T14:18:21.498Z,3.08
2022-09-05T14:21:16.088Z,0.75
2022-09-05T14:23:55.986Z,2.53
2022-09-05T14:26:33.659Z,0.73
2022-09-05T14:29:09.453Z,0.80
2022-09-05T14:37:44.465Z,0.77
2022-09-05T14:37:54.762Z,0.80
2022-09-05T14:38:09.491Z,2.35
2022-09-05T14:41:19.427Z,1.85
2022-09-05T14:43:57.045Z,0.93
2022-09-05T14:46:38.724Z,0.75
2022-09-05T14:49:29.086Z,1.02
2022-09-05T14:51:58.387Z,0.80
2022-09-05T15:02:39.120Z,2.55
2022-09-05T15:02:58.246Z,1.10
2022-09-05T15:03:12.798Z,0.90
2022-09-05T15:05:46.707Z,2.70
2022-09-05T15:08:33.255Z,1.33
2022-09-05T15:12:16.063Z,0.93
2022-09-05T15:14:04.850Z,0.77
2022-09-05T15:16:43.622Z,1.00
2022-09-05T15:19:12.123Z,1.83
2022-09-05T15:21:41.509Z,0.75
2022-09-05T15:24:21.509Z,1.75
2022-09-05T15:26:54.672Z,1.05
2022-09-05T15:29:30.689Z,0.77
2022-09-05T15:32:21.566Z,1.90
2022-09-05T15:34:55.532Z,1.25
2022-09-05T15:37:38.082Z,1.48
2022-09-05T15:40:22.050Z,0.80
2022-09-05T15:43:00.870Z,2.15
2022-09-05T15:45:32.156Z,1.35
2022-09-05T15:48:24.157Z,1.15
2022-09-05T15:50:57.816Z,1.48
2022-09-05T15:53:31.662Z,0.85
2022-09-05T15:56:09.767Z,1.58
2022-09-05T15:58:53.085Z,1.08
2022-09-05T16:01:58.153Z,0.85
2022-09-05T16:10:26.828Z,1.88
2022-09-05T16:10:36.109Z,0.80
2022-09-05T16:10:42.608Z,1.00
2022-09-05T16:13:15.858Z,1.02
2022-09-05T16:21:02.411Z,0.90
2022-09-05T16:23:25.481Z,1.45
2022-09-05T16:23:29.140Z,1.00
2022-09-05T16:24:58.031Z,1.00
2022-09-05T16:27:53.638Z,1.25
2022-09-05T16:30:29.503Z,0.82
2022-09-05T16:33:15.000Z,0.77
2022-09-05T16:36:16.567Z,1.02
2022-09-05T16:39:01.929Z,1.10
2022-09-05T16:42:46.936Z,6.15
2022-09-05T16:45:29.931Z,8.70
2022-09-05T16:48:12.219Z,7.80
2022-09-05T16:50:58.035Z,4.05
2022-09-05T16:53:50.799Z,3.28
2022-09-05T16:56:33.972Z,3.15
2022-09-05T16:59:08.908Z,9.43
2022-09-05T17:01:40.053Z,2.83
2022-09-05T17:04:25.054Z,7.57
2022-09-05T17:07:02.708Z,10.90
2022-09-05T17:09:41.092Z,6.68
2022-09-05T17:12:17.168Z,15.18
2022-09-05T17:15:09.225Z,3.60
2022-09-05T17:18:22.182Z,6.15
2022-09-05T17:20:56.990Z,2.28
2022-09-05T17:28:03.833Z,1.33
2022-09-05T17:29:32.962Z,23.02
2022-09-05T17:32:47.557Z,23.45
2022-09-05T17:35:33.109Z,31.52
2022-09-05T17:38:11.550Z,15.48
2022-09-05T17:40:43.093Z,10.13
2022-09-05T17:43:28.723Z,8.27
2022-09-05T17:46:20.428Z,7.78
2022-09-05T17:49:17.619Z,11.02
2022-09-05T17:52:02.265Z,9.63
2022-09-05T17:54:33.814Z,5.57
2022-09-05T17:57:27.475Z,2.85
2022-09-05T18:00:33.562Z,1.80
2022-09-05T18:03:01.117Z,1.98
2022-09-05T18:05:55.091Z,1.75
2022-09-05T18:08:44.933Z,1.33
2022-09-05T18:11:37.678Z,1.20
2022-09-05T18:17:36.299Z,2.65
2022-09-05T18:22:41.996Z,1.77
2022-09-05T18:25:30.587Z,2.25
2022-09-05T18:28:32.274Z,1.33
2022-09-05T18:31:41.618Z,0.90
2022-09-05T18:34:15.939Z,1.13
2022-09-05T18:36:48.827Z,1.30
2022-09-05T18:39:29.427Z,3.63
2022-09-05T18:42:04.249Z,1.20
2022-09-05T18:44:59.688Z,3.70
2022-09-05T18:47:51.183Z,0.82
2022-09-05T18:50:32.852Z,1.20
2022-09-05T18:53:09.976Z,1.45
2022-09-05T18:56:20.828Z,1.20
2022-09-05T18:59:11.078Z,2.85
2022-09-05T19:01:45.704Z,1.25
2022-09-05T19:04:39.172Z,1.20
2022-09-05T19:07:24.035Z,1.25
2022-09-05T19:10:35.165Z,1.40
2022-09-05T19:13:16.533Z,1.23
2022-09-05T19:16:34.838Z,1.20
2022-09-05T19:19:24.620Z,2.38
2022-09-05T19:22:37.255Z,1.38
2022-09-05T19:24:46.183Z,1.85
2022-09-05T19:31:58.129Z,2.00
2022-09-05T19:36:52.937Z,2.90
2022-09-05T19:36:53.754Z,1.60
2022-09-05T19:37:06.262Z,1.38
2022-09-05T19:40:53.482Z,1.48
2022-09-05T19:47:31.210Z,1.50
2022-09-05T19:47:40.061Z,1.70
2022-09-05T19:47:56.508Z,1.50
2022-09-05T19:50:13.417Z,1.40
2022-09-05T19:52:41.177Z,1.30
2022-09-05T19:55:20.772Z,1.73
2022-09-05T19:58:05.288Z,3.10
2022-09-05T20:00:41.188Z,1.25
2022-09-05T20:03:09.121Z,1.88
2022-09-05T20:05:41.889Z,1.50
2022-09-05T20:08:13.661Z,1.63
2022-09-05T20:10:41.508Z,1.40
2022-09-05T20:13:24.084Z,2.45
2022-09-05T20:15:52.874Z,2.00
2022-09-05T20:18:26.974Z,2.60
2022-09-05T20:21:06.046Z,1.63
2022-09-05T20:23:36.267Z,1.77
2022-09-05T20:26:04.068Z,1.30
2022-09-05T20:28:36.891Z,2.22
2022-09-05T20:31:27.351Z,1.65
2022-09-05T20:34:04.118Z,1.38
2022-09-05T20:43:11.115Z,1.65
2022-09-05T20:43:24.001Z,1.90
2022-09-05T20:43:31.859Z,1.70
2022-09-05T20:45:54.487Z,1.83
2022-09-05T20:54:16.438Z,1.30
2022-09-05T20:54:20.957Z,1.85
2022-09-05T20:54:36.086Z,1.25
2022-09-05T20:57:23.242Z,2.83
2022-09-05T20:59:51.004Z,3.10
2022-09-05T21:02:25.006Z,2.03
2022-09-05T21:05:06.822Z,1.52
2022-09-05T21:08:06.783Z,1.73
2022-09-05T21:10:55.797Z,1.75
2022-09-05T21:13:35.524Z,1.80
2022-09-05T21:16:13.230Z,1.80
2022-09-05T21:18:43.959Z,1.45
2022-09-05T21:21:30.281Z,3.17
2022-09-05T21:24:08.984Z,4.47
2022-09-05T21:26:50.419Z,2.88
2022-09-05T21:29:27.340Z,1.85
2022-09-05T21:32:01.889Z,1.40
2022-09-05T21:34:33.550Z,2.05
2022-09-05T21:37:07.884Z,1.30
2022-09-05T21:39:59.123Z,2.05
2022-09-05T21:44:59.143Z,1.90
2022-09-05T21:47:43.102Z,1.30
2022-09-05T21:48:15.667Z,2.17
2022-09-05T21:50:59.954Z,2.65
2022-09-05T21:59:14.415Z,2.28
2022-09-05T21:59:33.665Z,1.63
2022-09-05T21:59:45.967Z,1.98
2022-09-05T22:02:17.154Z,1.45
2022-09-05T22:04:45.151Z,1.50
2022-09-05T22:07:14.574Z,3.38
2022-09-05T22:09:42.630Z,1.35
2022-09-05T22:12:30.114Z,4.88
2022-09-05T22:15:02.493Z,1.38
2022-09-05T22:17:47.322Z,1.23
2022-09-05T22:20:18.855Z,1.70
2022-09-05T22:22:56.440Z,1.50
2022-09-05T22:25:33.001Z,2.58
2022-09-05T22:28:08.712Z,6.18
2022-09-05T22:30:37.052Z,1.92
2022-09-05T22:33:05.973Z,1.45
2022-09-05T22:35:36.454Z,1.42
2022-09-05T22:38:13.320Z,1.75
2022-09-05T22:40:42.307Z,1.52
2022-09-05T22:43:11.198Z,1.73
2022-09-05T22:45:39.793Z,1.40
2022-09-05T22:48:14.856Z,1.35
2022-09-05T22:50:43.099Z,1.40
2022-09-05T22:53:10.728Z,1.45
2022-09-05T22:55:41.373Z,1.30
2022-09-05T22:58:12.920Z,1.20
2022-09-05T23:00:41.969Z,1.77
2022-09-05T23:03:09.640Z,1.33
2022-09-05T23:05:38.128Z,1.30
2022-09-05T23:08:06.982Z,3.08
2022-09-05T23:10:36.381Z,1.30
2022-09-05T23:13:09.338Z,1.45
2022-09-05T23:15:37.849Z,1.92
2022-09-05T23:18:06.084Z,1.40
2022-09-05T23:20:36.789Z,1.30
2022-09-05T23:23:06.330Z,1.60
2022-09-05T23:25:35.197Z,1.20
2022-09-05T23:28:07.691Z,1.83
2022-09-05T23:30:36.814Z,1.50
2022-09-05T23:33:07.609Z,1.30
2022-09-05T23:35:36.197Z,1.40
2022-09-05T23:38:09.366Z,1.95
2022-09-05T23:40:37.509Z,1.73
2022-09-05T23:43:05.498Z,1.40
2022-09-05T23:45:33.389Z,1.38
2022-09-05T23:48:01.273Z,1.48
2022-09-05T23:50:29.601Z,1.50
2022-09-05T23:52:57.277Z,0.90
2022-09-05T23:55:24.816Z,1.65
2022-09-05T23:57:58.294Z,1.17
